sensor_id;sensor_type;location;lat;lon;timestamp;pressure;altitude;pressure_sealevel;temperature;humidity
44734;BME280;30462;52.446;-1.930;2022-11-20T00:00:18;99602.61719;;;;
44734;BME280;30462;52.446;-1.930;2022-11-20T00:01:19;99602.88281;;;;
44734;BME280;30462;52.446;-1.930;2022-11-20T00:02:18;99599.5;;;;
44734;BME280;30462;52.446;-1.930;2022-11-20T00:03:18;99599.81641;;;;
44734;BME280;30462;52.446;-1.930;2022-11-20T00:04:18;99596.51172;;;;
44734;BME280;30462;52.446;-1.930;2022-11-20T00:05:18;99593.54297;;;;
44734;BME280;30462;52.446;-1.930;2022-11-20T00:06:18;99589.69141;;;;
44734;BME280;30462;52.446;-1.930;2022-11-20T00:07:18;99591.73047;;;;
44734;BME280;30462;52.446;-1.930;2022-11-20T00:08:18;99590.86328;;;;
44734;BME280;30462;52.446;-1.930;2022-11-20T00:09:18;99588.78516;;;;
44734;BME280;30462;52.446;-1.930;2022-11-20T00:10:18;99586.125;;;;
44734;BME280;30462;52.446;-1.930;2022-11-20T00:11:18;99585.54297;;;;
44734;BME280;30462;52.446;-1.930;2022-11-20T00:12:18;99588.44922;;;;
44734;BME280;30462;52.446;-1.930;2022-11-20T00:13:18;99587.55469;;;;
44734;BME280;30462;52.446;-1.930;2022-11-20T00:14:18;99582.90625;;;;
44734;BME280;30462;52.446;-1.930;2022-11-20T00:15:18;99583.14453;;;;
44734;BME280;30462;52.446;-1.930;2022-11-20T00:16:20;99584.67969;;;;
44734;BME280;30462;52.446;-1.930;2022-11-20T00:17:18;99584.13281;;;;
44734;BME280;30462;52.446;-1.930;2022-11-20T00:18:18;99587.66797;;;;
44734;BME280;30462;52.446;-1.930;2022-11-20T00:19:18;99583.82422;;;;
44734;BME280;30462;52.446;-1.930;2022-11-20T00:20:18;99586.69922;;;;
44734;BME280;30462;52.446;-1.930;2022-11-20T00:21:19;99586.76953;;;;
44734;BME280;30462;52.446;-1.930;2022-11-20T00:22:18;99584.26172;;;;
44734;BME280;30462;52.446;-1.930;2022-11-20T00:23:18;99578.73438;;;;
44734;BME280;30462;52.446;-1.930;2022-11-20T00:24:18;99580.00391;;;;
44734;BME280;30462;52.446;-1.930;2022-11-20T00:25:18;99575.72266;;;;
44734;BME280;30462;52.446;-1.930;2022-11-20T00:26:19;99571.64453;;;;
44734;BME280;30462;52.446;-1.930;2022-11-20T00:27:18;99571.16797;;;;
44734;BME280;30462;52.446;-1.930;2022-11-20T00:28:17;99570.05859;;;;
44734;BME280;30462;52.446;-1.930;2022-11-20T00:29:18;99572.10938;;;;
44734;BME280;30462;52.446;-1.930;2022-11-20T00:30:18;99566.89063;;;;
44734;BME280;30462;52.446;-1.930;2022-11-20T00:31:18;99564.90234;;;;
44734;BME280;30462;52.446;-1.930;2022-11-20T00:32:18;99564.13281;;;;
44734;BME280;30462;52.446;-1.930;2022-11-20T00:33:18;99565.47656;;;;
44734;BME280;30462;52.446;-1.930;2022-11-20T00:34:18;99569.41016;;;;
44734;BME280;30462;52.446;-1.930;2022-11-20T00:35:18;99567.80469;;;;
44734;BME280;30462;52.446;-1.930;2022-11-20T00:36:19;99570.26953;;;;
44734;BME280;30462;52.446;-1.930;2022-11-20T00:37:17;99568.56641;;;;
44734;BME280;30462;52.446;-1.930;2022-11-20T00:38:17;99565.25391;;;;
44734;BME280;30462;52.446;-1.930;2022-11-20T00:39:18;99566.07813;;;;
44734;BME280;30462;52.446;-1.930;2022-11-20T00:40:18;99564.85938;;;;
44734;BME280;30462;52.446;-1.930;2022-11-20T00:41:18;99560.32813;;;;
44734;BME280;30462;52.446;-1.930;2022-11-20T00:42:18;99561.82422;;;;
44734;BME280;30462;52.446;-1.930;2022-11-20T00:43:18;99555.80859;;;;
44734;BME280;30462;52.446;-1.930;2022-11-20T00:44:18;99555.55078;;;;
44734;BME280;30462;52.446;-1.930;2022-11-20T00:45:18;99552.39844;;;;
44734;BME280;30462;52.446;-1.930;2022-11-20T00:46:20;99557.15234;;;;
44734;BME280;30462;52.446;-1.930;2022-11-20T00:47:18;99554.82031;;;;
44734;BME280;30462;52.446;-1.930;2022-11-20T00:48:18;99559.72266;;;;
44734;BME280;30462;52.446;-1.930;2022-11-20T00:49:18;99556.53516;;;;
44734;BME280;30462;52.446;-1.930;2022-11-20T00:50:17;99558.4375;;;;
44734;BME280;30462;52.446;-1.930;2022-11-20T00:51:20;99554.08984;;;;
44734;BME280;30462;52.446;-1.930;2022-11-20T00:52:18;99554.80859;;;;
44734;BME280;30462;52.446;-1.930;2022-11-20T00:53:18;99552.63281;;;;
44734;BME280;30462;52.446;-1.930;2022-11-20T00:54:18;99553.66016;;;;
44734;BME280;30462;52.446;-1.930;2022-11-20T00:55:17;99551.10547;;;;
44734;BME280;30462;52.446;-1.930;2022-11-20T00:56:18;99547.25;;;;
44734;BME280;30462;52.446;-1.930;2022-11-20T00:57:18;99547.5625;;;;
44734;BME280;30462;52.446;-1.930;2022-11-20T00:58:18;99549.34375;;;;
44734;BME280;30462;52.446;-1.930;2022-11-20T00:59:18;99547.90234;;;;
44734;BME280;30462;52.446;-1.930;2022-11-20T01:00:18;99547.19141;;;;
44734;BME280;30462;52.446;-1.930;2022-11-20T01:01:19;99542.00391;;;;
44734;BME280;30462;52.446;-1.930;2022-11-20T01:02:18;99540.42969;;;;
44734;BME280;30462;52.446;-1.930;2022-11-20T01:03:18;99538.65234;;;;
44734;BME280;30462;52.446;-1.930;2022-11-20T01:04:17;99538.37109;;;;
44734;BME280;30462;52.446;-1.930;2022-11-20T01:05:18;99536.13281;;;;
44734;BME280;30462;52.446;-1.930;2022-11-20T01:06:19;99537.27344;;;;
44734;BME280;30462;52.446;-1.930;2022-11-20T01:07:18;99531.52344;;;;
44734;BME280;30462;52.446;-1.930;2022-11-20T01:08:18;99528.83984;;;;
44734;BME280;30462;52.446;-1.930;2022-11-20T01:09:17;99528.40234;;;;
44734;BME280;30462;52.446;-1.930;2022-11-20T01:10:18;99524.23047;;;;
44734;BME280;30462;52.446;-1.930;2022-11-20T01:11:19;99521.55469;;;;
44734;BME280;30462;52.446;-1.930;2022-11-20T01:12:18;99521.07813;;;;
44734;BME280;30462;52.446;-1.930;2022-11-20T01:13:18;99518.06641;;;;
44734;BME280;30462;52.446;-1.930;2022-11-20T01:14:19;99518.90625;;;;
44734;BME280;30462;52.446;-1.930;2022-11-20T01:15:18;99518.52344;;;;
44734;BME280;30462;52.446;-1.930;2022-11-20T01:16:19;99517.85156;;;;
44734;BME280;30462;52.446;-1.930;2022-11-20T01:17:17;99516.27344;;;;
44734;BME280;30462;52.446;-1.930;2022-11-20T01:18:18;99511.29297;;;;
44734;BME280;30462;52.446;-1.930;2022-11-20T01:19:19;99511.01172;;;;
44734;BME280;30462;52.446;-1.930;2022-11-20T01:20:18;99510.31641;;;;
44734;BME280;30462;52.446;-1.930;2022-11-20T01:21:19;99507.65625;;;;
44734;BME280;30462;52.446;-1.930;2022-11-20T01:22:18;99506.81641;;;;
44734;BME280;30462;52.446;-1.930;2022-11-20T01:23:18;99499.49609;;;;
44734;BME280;30462;52.446;-1.930;2022-11-20T01:24:18;99497.04297;;;;
44734;BME280;30462;52.446;-1.930;2022-11-20T01:25:18;99490.86719;;;;
44734;BME280;30462;52.446;-1.930;2022-11-20T01:26:18;99491.90625;;;;
44734;BME280;30462;52.446;-1.930;2022-11-20T01:27:18;99491.04688;;;;
44734;BME280;30462;52.446;-1.930;2022-11-20T01:28:18;99487.10156;;;;
44734;BME280;30462;52.446;-1.930;2022-11-20T01:29:18;99478.70703;;;;
44734;BME280;30462;52.446;-1.930;2022-11-20T01:30:18;99479.03125;;;;
44734;BME280;30462;52.446;-1.930;2022-11-20T01:31:19;99472.71094;;;;
44734;BME280;30462;52.446;-1.930;2022-11-20T01:32:17;99467.54688;;;;
44734;BME280;30462;52.446;-1.930;2022-11-20T01:33:17;99464.40625;;;;
44734;BME280;30462;52.446;-1.930;2022-11-20T01:34:19;99463.3125;;;;
44734;BME280;30462;52.446;-1.930;2022-11-20T01:35:17;99457.64453;;;;
44734;BME280;30462;52.446;-1.930;2022-11-20T01:36:19;99453.72656;;;;
44734;BME280;30462;52.446;-1.930;2022-11-20T01:37:18;99455.58594;;;;
44734;BME280;30462;52.446;-1.930;2022-11-20T01:38:18;99453.46484;;;;
44734;BME280;30462;52.446;-1.930;2022-11-20T01:39:21;99451.62109;;;;
44734;BME280;30462;52.446;-1.930;2022-11-20T01:40:18;99452.83594;;;;
44734;BME280;30462;52.446;-1.930;2022-11-20T01:41:18;99450.42188;;;;
44734;BME280;30462;52.446;-1.930;2022-11-20T01:42:18;99450.42188;;;;
44734;BME280;30462;52.446;-1.930;2022-11-20T01:43:19;99451.42188;;;;
44734;BME280;30462;52.446;-1.930;2022-11-20T01:44:19;99453.35547;;;;
44734;BME280;30462;52.446;-1.930;2022-11-20T01:46:18;99447.89453;;;;
44734;BME280;30462;52.446;-1.930;2022-11-20T01:47:20;99446.05469;;;;
44734;BME280;30462;52.446;-1.930;2022-11-20T01:48:18;99440.38672;;;;
44734;BME280;30462;52.446;-1.930;2022-11-20T01:49:20;99438.12891;;;;
44734;BME280;30462;52.446;-1.930;2022-11-20T01:50:19;99432.48828;;;;
44734;BME280;30462;52.446;-1.930;2022-11-20T01:51:20;99431.01172;;;;
44734;BME280;30462;52.446;-1.930;2022-11-20T01:52:19;99429.71484;;;;
44734;BME280;30462;52.446;-1.930;2022-11-20T01:53:18;99426.83984;;;;
44734;BME280;30462;52.446;-1.930;2022-11-20T01:54:19;99428.9375;;;;
44734;BME280;30462;52.446;-1.930;2022-11-20T01:55:19;99422.69922;;;;
44734;BME280;30462;52.446;-1.930;2022-11-20T01:56:18;99422.60938;;;;
44734;BME280;30462;52.446;-1.930;2022-11-20T01:57:19;99417.92188;;;;
44734;BME280;30462;52.446;-1.930;2022-11-20T01:58:18;99413.08594;;;;
44734;BME280;30462;52.446;-1.930;2022-11-20T01:59:18;99413.1875;;;;
44734;BME280;30462;52.446;-1.930;2022-11-20T02:00:19;99408.78125;;;;
44734;BME280;30462;52.446;-1.930;2022-11-20T02:01:18;99405.50781;;;;
44734;BME280;30462;52.446;-1.930;2022-11-20T02:02:18;99408.53516;;;;
44734;BME280;30462;52.446;-1.930;2022-11-20T02:03:18;99405.48047;;;;
44734;BME280;30462;52.446;-1.930;2022-11-20T02:04:18;99404.49219;;;;
44734;BME280;30462;52.446;-1.930;2022-11-20T02:05:19;99403.72656;;;;
44734;BME280;30462;52.446;-1.930;2022-11-20T02:06:19;99403.83594;;;;
44734;BME280;30462;52.446;-1.930;2022-11-20T02:07:18;99396.60938;;;;
44734;BME280;30462;52.446;-1.930;2022-11-20T02:08:18;99403.64453;;;;
44734;BME280;30462;52.446;-1.930;2022-11-20T02:09:18;99402.60938;;;;
44734;BME280;30462;52.446;-1.930;2022-11-20T02:10:17;99407.71875;;;;
44734;BME280;30462;52.446;-1.930;2022-11-20T02:11:18;99405.35547;;;;
44734;BME280;30462;52.446;-1.930;2022-11-20T02:12:18;99403.53516;;;;
44734;BME280;30462;52.446;-1.930;2022-11-20T02:13:18;99403.0625;;;;
44734;BME280;30462;52.446;-1.930;2022-11-20T02:14:18;99400.72266;;;;
44734;BME280;30462;52.446;-1.930;2022-11-20T02:15:18;99398.87109;;;;
44734;BME280;30462;52.446;-1.930;2022-11-20T02:16:20;99394.65234;;;;
44734;BME280;30462;52.446;-1.930;2022-11-20T02:17:18;99395.47656;;;;
44734;BME280;30462;52.446;-1.930;2022-11-20T02:18:20;99393.01563;;;;
44734;BME280;30462;52.446;-1.930;2022-11-20T02:19:20;99393.75;;;;
44734;BME280;30462;52.446;-1.930;2022-11-20T02:20:18;99391.19922;;;;
44734;BME280;30462;52.446;-1.930;2022-11-20T02:21:20;99389.78516;;;;
44734;BME280;30462;52.446;-1.930;2022-11-20T02:22:21;99388.33203;;;;
44734;BME280;30462;52.446;-1.930;2022-11-20T02:23:19;99385.26563;;;;
44734;BME280;30462;52.446;-1.930;2022-11-20T02:24:18;99381.39063;;;;
44734;BME280;30462;52.446;-1.930;2022-11-20T02:25:18;99381.92578;;;;
44734;BME280;30462;52.446;-1.930;2022-11-20T02:26:17;99376.48438;;;;
44734;BME280;30462;52.446;-1.930;2022-11-20T02:27:18;99372.41797;;;;
44734;BME280;30462;52.446;-1.930;2022-11-20T02:28:18;99371.60156;;;;
44734;BME280;30462;52.446;-1.930;2022-11-20T02:29:19;99368.71094;;;;
44734;BME280;30462;52.446;-1.930;2022-11-20T02:30:18;99369.96875;;;;
44734;BME280;30462;52.446;-1.930;2022-11-20T02:31:18;99367.14453;;;;
44734;BME280;30462;52.446;-1.930;2022-11-20T02:32:18;99365.16406;;;;
44734;BME280;30462;52.446;-1.930;2022-11-20T02:33:18;99360.51172;;;;
44734;BME280;30462;52.446;-1.930;2022-11-20T02:34:17;99357.26563;;;;
44734;BME280;30462;52.446;-1.930;2022-11-20T02:36:18;99347.55859;;;;
44734;BME280;30462;52.446;-1.930;2022-11-20T02:37:18;99348.65625;;;;
44734;BME280;30462;52.446;-1.930;2022-11-20T02:38:18;99345.80859;;;;
44734;BME280;30462;52.446;-1.930;2022-11-20T02:39:18;99346.35547;;;;
44734;BME280;30462;52.446;-1.930;2022-11-20T02:40:18;99341.75781;;;;
44734;BME280;30462;52.446;-1.930;2022-11-20T02:41:17;99341.70703;;;;
44734;BME280;30462;52.446;-1.930;2022-11-20T02:42:18;99337.37109;;;;
44734;BME280;30462;52.446;-1.930;2022-11-20T02:43:18;99338.37891;;;;
44734;BME280;30462;52.446;-1.930;2022-11-20T02:44:18;99338.125;;;;
44734;BME280;30462;52.446;-1.930;2022-11-20T02:45:18;99336.33203;;;;
44734;BME280;30462;52.446;-1.930;2022-11-20T02:46:18;99333.23047;;;;
44734;BME280;30462;52.446;-1.930;2022-11-20T02:47:18;99329.65625;;;;
44734;BME280;30462;52.446;-1.930;2022-11-20T02:48:18;99332.60156;;;;
44734;BME280;30462;52.446;-1.930;2022-11-20T02:49:18;99331.23047;;;;
44734;BME280;30462;52.446;-1.930;2022-11-20T02:50:18;99331.89453;;;;
44734;BME280;30462;52.446;-1.930;2022-11-20T02:51:17;99333.50781;;;;
44734;BME280;30462;52.446;-1.930;2022-11-20T02:52:18;99334.55469;;;;
44734;BME280;30462;52.446;-1.930;2022-11-20T02:53:18;99331.83594;;;;
44734;BME280;30462;52.446;-1.930;2022-11-20T02:54:18;99329.45703;;;;
44734;BME280;30462;52.446;-1.930;2022-11-20T02:55:18;99324.67578;;;;
44734;BME280;30462;52.446;-1.930;2022-11-20T02:56:18;99326.59375;;;;
44734;BME280;30462;52.446;-1.930;2022-11-20T02:57:18;99319.1875;;;;
44734;BME280;30462;52.446;-1.930;2022-11-20T02:58:18;99324.08984;;;;
44734;BME280;30462;52.446;-1.930;2022-11-20T02:59:17;99324.95703;;;;
44734;BME280;30462;52.446;-1.930;2022-11-20T03:00:18;99324.3125;;;;
44734;BME280;30462;52.446;-1.930;2022-11-20T03:01:18;99327.21094;;;;
44734;BME280;30462;52.446;-1.930;2022-11-20T03:02:18;99327.21484;;;;
44734;BME280;30462;52.446;-1.930;2022-11-20T03:03:18;99323.57813;;;;
44734;BME280;30462;52.446;-1.930;2022-11-20T03:04:18;99321.90234;;;;
44734;BME280;30462;52.446;-1.930;2022-11-20T03:05:18;99325.92969;;;;
44734;BME280;30462;52.446;-1.930;2022-11-20T03:06:18;99322.17969;;;;
44734;BME280;30462;52.446;-1.930;2022-11-20T03:07:18;99323.63672;;;;
44734;BME280;30462;52.446;-1.930;2022-11-20T03:08:18;99322.58984;;;;
44734;BME280;30462;52.446;-1.930;2022-11-20T03:09:18;99320.45313;;;;
44734;BME280;30462;52.446;-1.930;2022-11-20T03:10:18;99316.8125;;;;
44734;BME280;30462;52.446;-1.930;2022-11-20T03:11:18;99313.5;;;;
44734;BME280;30462;52.446;-1.930;2022-11-20T03:12:18;99311.10156;;;;
44734;BME280;30462;52.446;-1.930;2022-11-20T03:13:17;99310.95313;;;;
44734;BME280;30462;52.446;-1.930;2022-11-20T03:14:18;99312.30859;;;;
44734;BME280;30462;52.446;-1.930;2022-11-20T03:15:18;99308.5;;;;
44734;BME280;30462;52.446;-1.930;2022-11-20T03:16:19;99304.03906;;;;
44734;BME280;30462;52.446;-1.930;2022-11-20T03:17:18;99302.46875;;;;
44734;BME280;30462;52.446;-1.930;2022-11-20T03:18:18;99296.08203;;;;
44734;BME280;30462;52.446;-1.930;2022-11-20T03:19:17;99291.69141;;;;
44734;BME280;30462;52.446;-1.930;2022-11-20T03:20:18;99287.23047;;;;
44734;BME280;30462;52.446;-1.930;2022-11-20T03:21:18;99281.96875;;;;
44734;BME280;30462;52.446;-1.930;2022-11-20T03:22:18;99277.29297;;;;
44734;BME280;30462;52.446;-1.930;2022-11-20T03:23:18;99273.82031;;;;
44734;BME280;30462;52.446;-1.930;2022-11-20T03:24:17;99271.54688;;;;
44734;BME280;30462;52.446;-1.930;2022-11-20T03:25:18;99268.65625;;;;
44734;BME280;30462;52.446;-1.930;2022-11-20T03:26:19;99270.13672;;;;
44734;BME280;30462;52.446;-1.930;2022-11-20T03:27:18;99268.71875;;;;
44734;BME280;30462;52.446;-1.930;2022-11-20T03:28:17;99263.17188;;;;
44734;BME280;30462;52.446;-1.930;2022-11-20T03:29:18;99251.16797;;;;
44734;BME280;30462;52.446;-1.930;2022-11-20T03:30:18;99250.28516;;;;
44734;BME280;30462;52.446;-1.930;2022-11-20T03:31:19;99253.98438;;;;
44734;BME280;30462;52.446;-1.930;2022-11-20T03:32:17;99251.32813;;;;
44734;BME280;30462;52.446;-1.930;2022-11-20T03:33:18;99253.76172;;;;
44734;BME280;30462;52.446;-1.930;2022-11-20T03:34:17;99252.30078;;;;
44734;BME280;30462;52.446;-1.930;2022-11-20T03:35:18;99255.71094;;;;
44734;BME280;30462;52.446;-1.930;2022-11-20T03:36:18;99252.07422;;;;
44734;BME280;30462;52.446;-1.930;2022-11-20T03:37:17;99247.82813;;;;
44734;BME280;30462;52.446;-1.930;2022-11-20T03:38:18;99251.71094;;;;
44734;BME280;30462;52.446;-1.930;2022-11-20T03:39:18;99250.71094;;;;
44734;BME280;30462;52.446;-1.930;2022-11-20T03:40:18;99248.11719;;;;
44734;BME280;30462;52.446;-1.930;2022-11-20T03:41:18;99250.00781;;;;
44734;BME280;30462;52.446;-1.930;2022-11-20T03:42:18;99244.48828;;;;
44734;BME280;30462;52.446;-1.930;2022-11-20T03:43:18;99240.89453;;;;
44734;BME280;30462;52.446;-1.930;2022-11-20T03:44:20;99236.86719;;;;
44734;BME280;30462;52.446;-1.930;2022-11-20T03:45:18;99238.27344;;;;
44734;BME280;30462;52.446;-1.930;2022-11-20T03:46:18;99234.42188;;;;
44734;BME280;30462;52.446;-1.930;2022-11-20T03:47:18;99235.68359;;;;
44734;BME280;30462;52.446;-1.930;2022-11-20T03:48:18;99236.61328;;;;
44734;BME280;30462;52.446;-1.930;2022-11-20T03:49:18;99234.58984;;;;
44734;BME280;30462;52.446;-1.930;2022-11-20T03:50:17;99232.34766;;;;
44734;BME280;30462;52.446;-1.930;2022-11-20T03:51:19;99230.72266;;;;
44734;BME280;30462;52.446;-1.930;2022-11-20T03:52:18;99230.83594;;;;
44734;BME280;30462;52.446;-1.930;2022-11-20T03:53:18;99231.42969;;;;
44734;BME280;30462;52.446;-1.930;2022-11-20T03:54:18;99231.81641;;;;
44734;BME280;30462;52.446;-1.930;2022-11-20T03:55:17;99230.83984;;;;
44734;BME280;30462;52.446;-1.930;2022-11-20T03:56:19;99230.20313;;;;
44734;BME280;30462;52.446;-1.930;2022-11-20T03:57:17;99229.91797;;;;
44734;BME280;30462;52.446;-1.930;2022-11-20T03:58:18;99224.04297;;;;
44734;BME280;30462;52.446;-1.930;2022-11-20T03:59:18;99224.63672;;;;
44734;BME280;30462;52.446;-1.930;2022-11-20T04:00:18;99220.56641;;;;
44734;BME280;30462;52.446;-1.930;2022-11-20T04:01:18;99217.52734;;;;
44734;BME280;30462;52.446;-1.930;2022-11-20T04:02:18;99214.55078;;;;
44734;BME280;30462;52.446;-1.930;2022-11-20T04:03:17;99209.05469;;;;
44734;BME280;30462;52.446;-1.930;2022-11-20T04:04:18;99208.51172;;;;
44734;BME280;30462;52.446;-1.930;2022-11-20T04:05:18;99207.42969;;;;
44734;BME280;30462;52.446;-1.930;2022-11-20T04:06:19;99209.8125;;;;
44734;BME280;30462;52.446;-1.930;2022-11-20T04:07:18;99207.85547;;;;
44734;BME280;30462;52.446;-1.930;2022-11-20T04:08:18;99206.12891;;;;
44734;BME280;30462;52.446;-1.930;2022-11-20T04:09:18;99206.02344;;;;
44734;BME280;30462;52.446;-1.930;2022-11-20T04:10:18;99204.86328;;;;
44734;BME280;30462;52.446;-1.930;2022-11-20T04:11:19;99203.35547;;;;
44734;BME280;30462;52.446;-1.930;2022-11-20T04:12:18;99203.78125;;;;
44734;BME280;30462;52.446;-1.930;2022-11-20T04:13:18;99209.39063;;;;
44734;BME280;30462;52.446;-1.930;2022-11-20T04:14:17;99204.59766;;;;
44734;BME280;30462;52.446;-1.930;2022-11-20T04:15:18;99198.9375;;;;
44734;BME280;30462;52.446;-1.930;2022-11-20T04:16:18;99195.3125;;;;
44734;BME280;30462;52.446;-1.930;2022-11-20T04:17:18;99196.61328;;;;
44734;BME280;30462;52.446;-1.930;2022-11-20T04:18:18;99197.16016;;;;
44734;BME280;30462;52.446;-1.930;2022-11-20T04:19:18;99194.15234;;;;
44734;BME280;30462;52.446;-1.930;2022-11-20T04:20:18;99190.69531;;;;
44734;BME280;30462;52.446;-1.930;2022-11-20T04:21:18;99189.00391;;;;
44734;BME280;30462;52.446;-1.930;2022-11-20T04:22:18;99189.22266;;;;
44734;BME280;30462;52.446;-1.930;2022-11-20T04:23:18;99195.85156;;;;
44734;BME280;30462;52.446;-1.930;2022-11-20T04:24:18;99192.09375;;;;
44734;BME280;30462;52.446;-1.930;2022-11-20T04:25:18;99189.375;;;;
44734;BME280;30462;52.446;-1.930;2022-11-20T04:26:19;99186.00781;;;;
44734;BME280;30462;52.446;-1.930;2022-11-20T04:27:18;99188.94922;;;;
44734;BME280;30462;52.446;-1.930;2022-11-20T04:28:18;99187.15234;;;;
44734;BME280;30462;52.446;-1.930;2022-11-20T04:29:18;99190.46094;;;;
44734;BME280;30462;52.446;-1.930;2022-11-20T04:30:18;99185.42188;;;;
44734;BME280;30462;52.446;-1.930;2022-11-20T04:31:18;99184.54297;;;;
44734;BME280;30462;52.446;-1.930;2022-11-20T04:32:18;99183.40625;;;;
44734;BME280;30462;52.446;-1.930;2022-11-20T04:33:18;99179.44922;;;;
44734;BME280;30462;52.446;-1.930;2022-11-20T04:34:18;99180.03125;;;;
44734;BME280;30462;52.446;-1.930;2022-11-20T04:35:18;99180.79688;;;;
44734;BME280;30462;52.446;-1.930;2022-11-20T04:36:20;99182.37891;;;;
44734;BME280;30462;52.446;-1.930;2022-11-20T04:37:18;99178.02734;;;;
44734;BME280;30462;52.446;-1.930;2022-11-20T04:38:18;99171.60938;;;;
44734;BME280;30462;52.446;-1.930;2022-11-20T04:39:18;99171.16797;;;;
44734;BME280;30462;52.446;-1.930;2022-11-20T04:40:18;99167.92188;;;;
44734;BME280;30462;52.446;-1.930;2022-11-20T04:41:18;99172.74609;;;;
44734;BME280;30462;52.446;-1.930;2022-11-20T04:42:17;99177.05469;;;;
44734;BME280;30462;52.446;-1.930;2022-11-20T04:43:18;99183.07031;;;;
44734;BME280;30462;52.446;-1.930;2022-11-20T04:44:18;99180.07813;;;;
44734;BME280;30462;52.446;-1.930;2022-11-20T04:45:18;99176.83594;;;;
44734;BME280;30462;52.446;-1.930;2022-11-20T04:46:19;99179.28125;;;;
44734;BME280;30462;52.446;-1.930;2022-11-20T04:47:18;99184.28125;;;;
44734;BME280;30462;52.446;-1.930;2022-11-20T04:48:18;99173.99609;;;;
44734;BME280;30462;52.446;-1.930;2022-11-20T04:49:18;99173.39063;;;;
44734;BME280;30462;52.446;-1.930;2022-11-20T04:50:18;99177.52734;;;;
44734;BME280;30462;52.446;-1.930;2022-11-20T04:51:18;99171.33594;;;;
44734;BME280;30462;52.446;-1.930;2022-11-20T04:52:18;99171.11719;;;;
44734;BME280;30462;52.446;-1.930;2022-11-20T04:53:18;99175.56641;;;;
44734;BME280;30462;52.446;-1.930;2022-11-20T04:54:18;99172.84766;;;;
44734;BME280;30462;52.446;-1.930;2022-11-20T04:55:18;99171.76172;;;;
44734;BME280;30462;52.446;-1.930;2022-11-20T04:56:18;99166.91406;;;;
44734;BME280;30462;52.446;-1.930;2022-11-20T04:57:18;99165.125;;;;
44734;BME280;30462;52.446;-1.930;2022-11-20T04:58:18;99177.41797;;;;
44734;BME280;30462;52.446;-1.930;2022-11-20T04:59:18;99185.89844;;;;
44734;BME280;30462;52.446;-1.930;2022-11-20T05:00:18;99193.17578;;;;
44734;BME280;30462;52.446;-1.930;2022-11-20T05:01:19;99197.13672;;;;
44734;BME280;30462;52.446;-1.930;2022-11-20T05:02:18;99190.99219;;;;
44734;BME280;30462;52.446;-1.930;2022-11-20T05:03:18;99188.66797;;;;
44734;BME280;30462;52.446;-1.930;2022-11-20T05:04:17;99188.8125;;;;
44734;BME280;30462;52.446;-1.930;2022-11-20T05:05:17;99186.90234;;;;
44734;BME280;30462;52.446;-1.930;2022-11-20T05:06:19;99181.08984;;;;
44734;BME280;30462;52.446;-1.930;2022-11-20T05:07:18;99185.10156;;;;
44734;BME280;30462;52.446;-1.930;2022-11-20T05:08:18;99181.45313;;;;
44734;BME280;30462;52.446;-1.930;2022-11-20T05:09:18;99182.28125;;;;
44734;BME280;30462;52.446;-1.930;2022-11-20T05:10:18;99179.11328;;;;
44734;BME280;30462;52.446;-1.930;2022-11-20T05:11:19;99177.76953;;;;
44734;BME280;30462;52.446;-1.930;2022-11-20T05:12:17;99183.47266;;;;
44734;BME280;30462;52.446;-1.930;2022-11-20T05:13:18;99182.42188;;;;
44734;BME280;30462;52.446;-1.930;2022-11-20T05:14:18;99189.97656;;;;
44734;BME280;30462;52.446;-1.930;2022-11-20T05:15:18;99188.03906;;;;
44734;BME280;30462;52.446;-1.930;2022-11-20T05:16:18;99185.53516;;;;
44734;BME280;30462;52.446;-1.930;2022-11-20T05:17:17;99187.26563;;;;
44734;BME280;30462;52.446;-1.930;2022-11-20T05:18:18;99192.26953;;;;
44734;BME280;30462;52.446;-1.930;2022-11-20T05:19:18;99194.66797;;;;
44734;BME280;30462;52.446;-1.930;2022-11-20T05:20:18;99194;;;;
44734;BME280;30462;52.446;-1.930;2022-11-20T05:21:18;99190.96094;;;;
44734;BME280;30462;52.446;-1.930;2022-11-20T05:22:18;99193.48438;;;;
44734;BME280;30462;52.446;-1.930;2022-11-20T05:23:18;99180.95313;;;;
44734;BME280;30462;52.446;-1.930;2022-11-20T05:24:18;99191.62891;;;;
44734;BME280;30462;52.446;-1.930;2022-11-20T05:25:18;99192.08203;;;;
44734;BME280;30462;52.446;-1.930;2022-11-20T05:26:18;99194.40625;;;;
44734;BME280;30462;52.446;-1.930;2022-11-20T05:27:18;99188.09766;;;;
44734;BME280;30462;52.446;-1.930;2022-11-20T05:28:18;99193.65625;;;;
44734;BME280;30462;52.446;-1.930;2022-11-20T05:29:18;99193.16406;;;;
44734;BME280;30462;52.446;-1.930;2022-11-20T05:30:18;99195.39844;;;;
44734;BME280;30462;52.446;-1.930;2022-11-20T05:31:19;99193.23438;;;;
44734;BME280;30462;52.446;-1.930;2022-11-20T05:32:18;99195.77344;;;;
44734;BME280;30462;52.446;-1.930;2022-11-20T05:33:18;99195.78516;;;;
44734;BME280;30462;52.446;-1.930;2022-11-20T05:34:18;99197.41797;;;;
44734;BME280;30462;52.446;-1.930;2022-11-20T05:35:18;99202.14453;;;;
44734;BME280;30462;52.446;-1.930;2022-11-20T05:36:18;99204.875;;;;
44734;BME280;30462;52.446;-1.930;2022-11-20T05:37:18;99201.66406;;;;
44734;BME280;30462;52.446;-1.930;2022-11-20T05:38:18;99206.49609;;;;
44734;BME280;30462;52.446;-1.930;2022-11-20T05:39:18;99206.34375;;;;
44734;BME280;30462;52.446;-1.930;2022-11-20T05:40:18;99208.14453;;;;
44734;BME280;30462;52.446;-1.930;2022-11-20T05:41:19;99206.98047;;;;
44734;BME280;30462;52.446;-1.930;2022-11-20T05:42:18;99207.65234;;;;
44734;BME280;30462;52.446;-1.930;2022-11-20T05:43:18;99207.48438;;;;
44734;BME280;30462;52.446;-1.930;2022-11-20T05:44:18;99207.91016;;;;
44734;BME280;30462;52.446;-1.930;2022-11-20T05:45:18;99206.39453;;;;
44734;BME280;30462;52.446;-1.930;2022-11-20T05:46:18;99206.01172;;;;
44734;BME280;30462;52.446;-1.930;2022-11-20T05:47:18;99205.95313;;;;